Terminal Aerodrome Forecast
Issued by NWS

Current Version | Previous Version | Text Only | Print | Product List | Glossary On
Versions: 1 2 3 4 5 6 7 8 9 10 11 12 13 14 15 16
000
FTUS44 KLZK 241136
TAFLLQ
TAF
KLLQ 241136Z 2412/2512 16008G15KT P6SM BKN020 BKN250 WS020/19040KT
     FM241300 16008G15KT P6SM BKN030 BKN250 WS020/19040KT
     FM241500 16010G20KT P6SM BKN050 BKN250
     FM242100 17012G25KT P6SM VCTS BKN035CB OVC050
      TEMPO 2423/2503 3SM TSRA BR OVC035CB
     FM250300 17010G20KT P6SM VCTS SCT020CB OVC050=

USA.gov is the U.S. government's official web portal to all federal, state and local government web resources and services.